sensor_id;sensor_type;location;lat;lon;timestamp;P1;durP1;ratioP1;P2;durP2;ratioP2
52354;SDS011;38286;51.156;17.038;2022-12-18T00:01:31;51.50;;;18.67;;
52354;SDS011;38286;51.156;17.038;2022-12-18T00:03:58;52.08;;;16.48;;
52354;SDS011;38286;51.156;17.038;2022-12-18T00:06:25;47.13;;;14.88;;
52354;SDS011;38286;51.156;17.038;2022-12-18T00:08:52;53.42;;;15.52;;
52354;SDS011;38286;51.156;17.038;2022-12-18T00:11:20;48.35;;;13.35;;
52354;SDS011;38286;51.156;17.038;2022-12-18T00:13:47;51.30;;;15.15;;
52354;SDS011;38286;51.156;17.038;2022-12-18T00:16:14;53.85;;;15.48;;
52354;SDS011;38286;51.156;17.038;2022-12-18T00:18:42;50.22;;;15.43;;
52354;SDS011;38286;51.156;17.038;2022-12-18T00:21:08;43.67;;;12.60;;
52354;SDS011;38286;51.156;17.038;2022-12-18T00:23:35;46.25;;;14.13;;
52354;SDS011;38286;51.156;17.038;2022-12-18T00:26:02;49.55;;;15.13;;
52354;SDS011;38286;51.156;17.038;2022-12-18T00:28:30;48.63;;;14.23;;
52354;SDS011;38286;51.156;17.038;2022-12-18T00:31:06;50.65;;;14.90;;
52354;SDS011;38286;51.156;17.038;2022-12-18T00:33:34;53.28;;;15.18;;
52354;SDS011;38286;51.156;17.038;2022-12-18T00:36:00;65.00;;;16.10;;
52354;SDS011;38286;51.156;17.038;2022-12-18T00:38:29;50.25;;;15.32;;
52354;SDS011;38286;51.156;17.038;2022-12-18T00:40:55;50.38;;;13.60;;
52354;SDS011;38286;51.156;17.038;2022-12-18T00:43:21;49.80;;;15.20;;
52354;SDS011;38286;51.156;17.038;2022-12-18T00:45:46;42.92;;;14.50;;
52354;SDS011;38286;51.156;17.038;2022-12-18T00:48:12;39.15;;;12.57;;
52354;SDS011;38286;51.156;17.038;2022-12-18T00:50:38;56.15;;;16.50;;
52354;SDS011;38286;51.156;17.038;2022-12-18T00:53:03;52.72;;;16.17;;
52354;SDS011;38286;51.156;17.038;2022-12-18T00:55:29;49.22;;;14.48;;
52354;SDS011;38286;51.156;17.038;2022-12-18T00:57:55;51.08;;;15.95;;
52354;SDS011;38286;51.156;17.038;2022-12-18T01:00:20;54.28;;;15.40;;
52354;SDS011;38286;51.156;17.038;2022-12-18T01:02:46;62.45;;;16.17;;
52354;SDS011;38286;51.156;17.038;2022-12-18T01:05:12;49.10;;;14.63;;
52354;SDS011;38286;51.156;17.038;2022-12-18T01:07:38;49.65;;;14.15;;
52354;SDS011;38286;51.156;17.038;2022-12-18T01:10:04;47.97;;;15.95;;
52354;SDS011;38286;51.156;17.038;2022-12-18T01:12:31;50.05;;;16.00;;
52354;SDS011;38286;51.156;17.038;2022-12-18T01:14:57;56.30;;;15.10;;
52354;SDS011;38286;51.156;17.038;2022-12-18T01:17:23;51.97;;;15.30;;
52354;SDS011;38286;51.156;17.038;2022-12-18T01:19:48;43.42;;;13.25;;
52354;SDS011;38286;51.156;17.038;2022-12-18T01:22:14;56.53;;;15.88;;
52354;SDS011;38286;51.156;17.038;2022-12-18T01:24:40;47.88;;;15.52;;
52354;SDS011;38286;51.156;17.038;2022-12-18T01:27:05;52.08;;;15.10;;
52354;SDS011;38286;51.156;17.038;2022-12-18T01:29:31;45.85;;;14.68;;
52354;SDS011;38286;51.156;17.038;2022-12-18T01:31:57;46.28;;;13.50;;
52354;SDS011;38286;51.156;17.038;2022-12-18T01:34:23;50.70;;;15.48;;
52354;SDS011;38286;51.156;17.038;2022-12-18T01:36:49;45.08;;;14.00;;
52354;SDS011;38286;51.156;17.038;2022-12-18T01:39:17;47.50;;;13.88;;
52354;SDS011;38286;51.156;17.038;2022-12-18T01:41:43;44.05;;;13.35;;
52354;SDS011;38286;51.156;17.038;2022-12-18T01:50:13;41.97;;;14.20;;
52354;SDS011;38286;51.156;17.038;2022-12-18T01:52:40;42.15;;;14.25;;
52354;SDS011;38286;51.156;17.038;2022-12-18T01:55:07;50.15;;;14.13;;
52354;SDS011;38286;51.156;17.038;2022-12-18T01:57:34;46.08;;;14.00;;
52354;SDS011;38286;51.156;17.038;2022-12-18T02:00:00;49.10;;;14.68;;
52354;SDS011;38286;51.156;17.038;2022-12-18T02:02:30;42.47;;;14.50;;
52354;SDS011;38286;51.156;17.038;2022-12-18T02:04:56;47.17;;;14.30;;
52354;SDS011;38286;51.156;17.038;2022-12-18T02:15:24;49.28;;;15.05;;
52354;SDS011;38286;51.156;17.038;2022-12-18T02:18:01;45.78;;;14.23;;
52354;SDS011;38286;51.156;17.038;2022-12-18T02:23:45;39.92;;;14.50;;
52354;SDS011;38286;51.156;17.038;2022-12-18T02:29:08;41.70;;;13.30;;
52354;SDS011;38286;51.156;17.038;2022-12-18T02:31:42;41.97;;;13.90;;
52354;SDS011;38286;51.156;17.038;2022-12-18T02:34:10;41.78;;;13.02;;
52354;SDS011;38286;51.156;17.038;2022-12-18T02:36:38;41.92;;;13.77;;
52354;SDS011;38286;51.156;17.038;2022-12-18T02:39:07;43.00;;;13.80;;
52354;SDS011;38286;51.156;17.038;2022-12-18T02:41:33;44.13;;;12.65;;
52354;SDS011;38286;51.156;17.038;2022-12-18T02:44:01;43.40;;;13.80;;
52354;SDS011;38286;51.156;17.038;2022-12-18T02:49:12;40.80;;;13.00;;
52354;SDS011;38286;51.156;17.038;2022-12-18T02:51:52;38.33;;;12.45;;
52354;SDS011;38286;51.156;17.038;2022-12-18T02:54:23;42.20;;;14.40;;
52354;SDS011;38286;51.156;17.038;2022-12-18T02:57:05;35.83;;;13.60;;
52354;SDS011;38286;51.156;17.038;2022-12-18T02:59:46;44.28;;;13.70;;
52354;SDS011;38286;51.156;17.038;2022-12-18T03:02:20;42.45;;;13.20;;
52354;SDS011;38286;51.156;17.038;2022-12-18T03:07:27;37.17;;;13.02;;
52354;SDS011;38286;51.156;17.038;2022-12-18T03:10:03;45.95;;;13.88;;
52354;SDS011;38286;51.156;17.038;2022-12-18T03:12:31;48.78;;;14.10;;
52354;SDS011;38286;51.156;17.038;2022-12-18T03:15:07;42.10;;;13.90;;
52354;SDS011;38286;51.156;17.038;2022-12-18T03:17:34;41.65;;;13.18;;
52354;SDS011;38286;51.156;17.038;2022-12-18T03:20:06;36.78;;;13.00;;
52354;SDS011;38286;51.156;17.038;2022-12-18T03:22:35;43.10;;;13.43;;
52354;SDS011;38286;51.156;17.038;2022-12-18T03:25:04;46.85;;;13.35;;
52354;SDS011;38286;51.156;17.038;2022-12-18T03:27:31;44.35;;;13.98;;
52354;SDS011;38286;51.156;17.038;2022-12-18T03:32:53;42.65;;;12.48;;
52354;SDS011;38286;51.156;17.038;2022-12-18T03:35:33;34.65;;;10.27;;
52354;SDS011;38286;51.156;17.038;2022-12-18T03:38:01;42.03;;;13.48;;
52354;SDS011;38286;51.156;17.038;2022-12-18T03:40:37;42.05;;;13.93;;
52354;SDS011;38286;51.156;17.038;2022-12-18T03:43:10;38.60;;;13.20;;
52354;SDS011;38286;51.156;17.038;2022-12-18T03:45:41;43.25;;;12.85;;
52354;SDS011;38286;51.156;17.038;2022-12-18T03:50:45;37.42;;;11.70;;
52354;SDS011;38286;51.156;17.038;2022-12-18T03:53:28;42.08;;;14.00;;
52354;SDS011;38286;51.156;17.038;2022-12-18T03:56:05;40.53;;;13.55;;
52354;SDS011;38286;51.156;17.038;2022-12-18T03:58:31;40.10;;;13.95;;
52354;SDS011;38286;51.156;17.038;2022-12-18T04:00:58;44.35;;;13.63;;
52354;SDS011;38286;51.156;17.038;2022-12-18T04:03:25;45.72;;;15.25;;
52354;SDS011;38286;51.156;17.038;2022-12-18T04:05:52;52.03;;;14.95;;
52354;SDS011;38286;51.156;17.038;2022-12-18T04:08:19;42.50;;;14.82;;
52354;SDS011;38286;51.156;17.038;2022-12-18T04:10:46;39.58;;;13.95;;
52354;SDS011;38286;51.156;17.038;2022-12-18T04:13:12;47.90;;;15.90;;
52354;SDS011;38286;51.156;17.038;2022-12-18T04:15:37;49.53;;;15.80;;
52354;SDS011;38286;51.156;17.038;2022-12-18T04:18:03;46.85;;;14.23;;
52354;SDS011;38286;51.156;17.038;2022-12-18T04:20:29;39.85;;;12.10;;
52354;SDS011;38286;51.156;17.038;2022-12-18T04:22:55;50.45;;;15.30;;
52354;SDS011;38286;51.156;17.038;2022-12-18T04:25:21;44.08;;;14.05;;
52354;SDS011;38286;51.156;17.038;2022-12-18T04:27:46;46.15;;;12.60;;
52354;SDS011;38286;51.156;17.038;2022-12-18T04:30:12;43.17;;;12.75;;
52354;SDS011;38286;51.156;17.038;2022-12-18T04:32:37;44.35;;;14.60;;
52354;SDS011;38286;51.156;17.038;2022-12-18T04:35:03;42.00;;;13.13;;
52354;SDS011;38286;51.156;17.038;2022-12-18T04:37:31;43.45;;;14.82;;
52354;SDS011;38286;51.156;17.038;2022-12-18T04:39:57;40.90;;;14.50;;
52354;SDS011;38286;51.156;17.038;2022-12-18T04:42:22;43.53;;;14.10;;
52354;SDS011;38286;51.156;17.038;2022-12-18T04:44:49;44.70;;;13.50;;
52354;SDS011;38286;51.156;17.038;2022-12-18T04:47:14;40.08;;;14.18;;
52354;SDS011;38286;51.156;17.038;2022-12-18T04:49:40;38.35;;;13.02;;
52354;SDS011;38286;51.156;17.038;2022-12-18T04:52:08;40.40;;;13.00;;
52354;SDS011;38286;51.156;17.038;2022-12-18T04:54:34;42.30;;;14.07;;
52354;SDS011;38286;51.156;17.038;2022-12-18T04:57:00;47.92;;;14.20;;
52354;SDS011;38286;51.156;17.038;2022-12-18T04:59:26;40.40;;;13.93;;
52354;SDS011;38286;51.156;17.038;2022-12-18T05:01:51;38.67;;;14.02;;
52354;SDS011;38286;51.156;17.038;2022-12-18T05:04:17;46.50;;;14.20;;
52354;SDS011;38286;51.156;17.038;2022-12-18T05:06:42;47.25;;;13.85;;
52354;SDS011;38286;51.156;17.038;2022-12-18T05:09:08;40.25;;;14.05;;
52354;SDS011;38286;51.156;17.038;2022-12-18T05:11:37;39.40;;;13.27;;
52354;SDS011;38286;51.156;17.038;2022-12-18T05:14:03;48.67;;;15.05;;
52354;SDS011;38286;51.156;17.038;2022-12-18T05:16:28;42.45;;;14.60;;
52354;SDS011;38286;51.156;17.038;2022-12-18T05:18:54;46.78;;;14.45;;
52354;SDS011;38286;51.156;17.038;2022-12-18T05:21:20;47.88;;;14.55;;
52354;SDS011;38286;51.156;17.038;2022-12-18T05:23:45;46.15;;;14.32;;
52354;SDS011;38286;51.156;17.038;2022-12-18T05:26:14;40.55;;;13.43;;
52354;SDS011;38286;51.156;17.038;2022-12-18T05:28:41;53.60;;;14.57;;
52354;SDS011;38286;51.156;17.038;2022-12-18T05:31:06;46.47;;;14.10;;
52354;SDS011;38286;51.156;17.038;2022-12-18T05:33:32;43.28;;;13.45;;
52354;SDS011;38286;51.156;17.038;2022-12-18T05:36:03;40.55;;;13.80;;
52354;SDS011;38286;51.156;17.038;2022-12-18T05:38:31;44.35;;;14.98;;
52354;SDS011;38286;51.156;17.038;2022-12-18T05:40:57;54.60;;;15.20;;
52354;SDS011;38286;51.156;17.038;2022-12-18T05:43:23;48.38;;;15.30;;
52354;SDS011;38286;51.156;17.038;2022-12-18T05:45:50;44.22;;;14.32;;
52354;SDS011;38286;51.156;17.038;2022-12-18T05:48:17;41.75;;;13.82;;
52354;SDS011;38286;51.156;17.038;2022-12-18T05:50:43;39.58;;;12.27;;
52354;SDS011;38286;51.156;17.038;2022-12-18T05:53:14;48.72;;;16.63;;
52354;SDS011;38286;51.156;17.038;2022-12-18T05:55:41;48.80;;;15.38;;
52354;SDS011;38286;51.156;17.038;2022-12-18T05:58:07;46.47;;;14.57;;
52354;SDS011;38286;51.156;17.038;2022-12-18T06:00:36;41.50;;;13.77;;
52354;SDS011;38286;51.156;17.038;2022-12-18T06:03:05;52.35;;;16.10;;
52354;SDS011;38286;51.156;17.038;2022-12-18T06:05:36;41.90;;;14.25;;
52354;SDS011;38286;51.156;17.038;2022-12-18T06:08:02;43.53;;;14.90;;
52354;SDS011;38286;51.156;17.038;2022-12-18T06:10:28;46.25;;;12.05;;
52354;SDS011;38286;51.156;17.038;2022-12-18T06:12:54;36.97;;;12.65;;
52354;SDS011;38286;51.156;17.038;2022-12-18T06:15:19;27.25;;;9.32;;
52354;SDS011;38286;51.156;17.038;2022-12-18T06:17:45;38.35;;;13.68;;
52354;SDS011;38286;51.156;17.038;2022-12-18T06:20:10;41.92;;;14.27;;
52354;SDS011;38286;51.156;17.038;2022-12-18T06:22:36;40.70;;;14.52;;
52354;SDS011;38286;51.156;17.038;2022-12-18T06:25:02;44.28;;;14.95;;
52354;SDS011;38286;51.156;17.038;2022-12-18T06:27:28;37.38;;;13.48;;
52354;SDS011;38286;51.156;17.038;2022-12-18T06:29:53;48.45;;;15.95;;
52354;SDS011;38286;51.156;17.038;2022-12-18T06:32:20;46.53;;;14.57;;
52354;SDS011;38286;51.156;17.038;2022-12-18T06:34:45;46.58;;;15.63;;
52354;SDS011;38286;51.156;17.038;2022-12-18T06:37:11;39.17;;;14.07;;
52354;SDS011;38286;51.156;17.038;2022-12-18T06:39:37;48.17;;;14.43;;
52354;SDS011;38286;51.156;17.038;2022-12-18T06:42:03;42.47;;;15.32;;
52354;SDS011;38286;51.156;17.038;2022-12-18T06:44:28;48.70;;;15.02;;
52354;SDS011;38286;51.156;17.038;2022-12-18T06:46:54;40.78;;;13.73;;
52354;SDS011;38286;51.156;17.038;2022-12-18T06:49:20;47.33;;;15.27;;
52354;SDS011;38286;51.156;17.038;2022-12-18T06:51:46;47.08;;;15.15;;
52354;SDS011;38286;51.156;17.038;2022-12-18T06:54:12;48.20;;;17.35;;
52354;SDS011;38286;51.156;17.038;2022-12-18T06:56:38;51.60;;;17.08;;
52354;SDS011;38286;51.156;17.038;2022-12-18T06:59:03;50.45;;;15.30;;
52354;SDS011;38286;51.156;17.038;2022-12-18T07:01:29;55.50;;;18.92;;
52354;SDS011;38286;51.156;17.038;2022-12-18T07:03:55;49.22;;;15.93;;
52354;SDS011;38286;51.156;17.038;2022-12-18T07:06:23;52.78;;;17.58;;
52354;SDS011;38286;51.156;17.038;2022-12-18T07:08:49;52.00;;;19.05;;
52354;SDS011;38286;51.156;17.038;2022-12-18T07:11:16;56.60;;;18.33;;
52354;SDS011;38286;51.156;17.038;2022-12-18T07:13:43;55.22;;;17.90;;
52354;SDS011;38286;51.156;17.038;2022-12-18T07:16:10;54.85;;;18.80;;
52354;SDS011;38286;51.156;17.038;2022-12-18T07:18:38;66.80;;;19.05;;
52354;SDS011;38286;51.156;17.038;2022-12-18T07:21:04;64.65;;;20.52;;
52354;SDS011;38286;51.156;17.038;2022-12-18T07:23:31;52.22;;;18.25;;
52354;SDS011;38286;51.156;17.038;2022-12-18T07:26:18;56.50;;;17.55;;
52354;SDS011;38286;51.156;17.038;2022-12-18T07:28:46;51.75;;;16.88;;
52354;SDS011;38286;51.156;17.038;2022-12-18T07:31:13;53.78;;;18.60;;
52354;SDS011;38286;51.156;17.038;2022-12-18T07:33:40;43.22;;;14.52;;
52354;SDS011;38286;51.156;17.038;2022-12-18T07:36:06;48.03;;;15.13;;
52354;SDS011;38286;51.156;17.038;2022-12-18T07:38:33;41.05;;;13.48;;
52354;SDS011;38286;51.156;17.038;2022-12-18T07:41:06;52.35;;;16.95;;
52354;SDS011;38286;51.156;17.038;2022-12-18T07:43:33;61.33;;;19.65;;
52354;SDS011;38286;51.156;17.038;2022-12-18T07:45:59;46.80;;;15.63;;
52354;SDS011;38286;51.156;17.038;2022-12-18T07:48:25;61.03;;;17.98;;
52354;SDS011;38286;51.156;17.038;2022-12-18T07:50:51;54.15;;;18.83;;
52354;SDS011;38286;51.156;17.038;2022-12-18T07:53:17;66.20;;;18.55;;
52354;SDS011;38286;51.156;17.038;2022-12-18T07:55:43;44.03;;;14.80;;
52354;SDS011;38286;51.156;17.038;2022-12-18T07:58:08;37.63;;;11.68;;
52354;SDS011;38286;51.156;17.038;2022-12-18T08:00:35;68.10;;;21.02;;
52354;SDS011;38286;51.156;17.038;2022-12-18T08:03:00;72.30;;;22.25;;
52354;SDS011;38286;51.156;17.038;2022-12-18T08:05:26;73.38;;;22.02;;
52354;SDS011;38286;51.156;17.038;2022-12-18T08:07:52;66.03;;;20.45;;
52354;SDS011;38286;51.156;17.038;2022-12-18T08:10:18;72.20;;;22.73;;
52354;SDS011;38286;51.156;17.038;2022-12-18T08:12:45;78.40;;;25.13;;
52354;SDS011;38286;51.156;17.038;2022-12-18T08:15:11;67.10;;;21.63;;
52354;SDS011;38286;51.156;17.038;2022-12-18T08:17:36;76.30;;;23.73;;
52354;SDS011;38286;51.156;17.038;2022-12-18T08:20:02;63.17;;;21.20;;
52354;SDS011;38286;51.156;17.038;2022-12-18T08:22:28;74.72;;;23.17;;
52354;SDS011;38286;51.156;17.038;2022-12-18T08:24:53;58.47;;;18.92;;
52354;SDS011;38286;51.156;17.038;2022-12-18T08:27:19;59.25;;;19.50;;
52354;SDS011;38286;51.156;17.038;2022-12-18T08:29:45;60.28;;;19.65;;
52354;SDS011;38286;51.156;17.038;2022-12-18T08:32:10;50.25;;;15.93;;
52354;SDS011;38286;51.156;17.038;2022-12-18T08:34:36;37.15;;;12.57;;
52354;SDS011;38286;51.156;17.038;2022-12-18T08:37:02;44.35;;;16.30;;
52354;SDS011;38286;51.156;17.038;2022-12-18T08:39:27;48.72;;;14.70;;
52354;SDS011;38286;51.156;17.038;2022-12-18T08:41:53;41.20;;;13.93;;
52354;SDS011;38286;51.156;17.038;2022-12-18T08:44:37;52.05;;;17.30;;
52354;SDS011;38286;51.156;17.038;2022-12-18T08:47:04;46.78;;;14.80;;
52354;SDS011;38286;51.156;17.038;2022-12-18T08:49:33;40.03;;;14.40;;
52354;SDS011;38286;51.156;17.038;2022-12-18T08:51:59;52.10;;;16.92;;
52354;SDS011;38286;51.156;17.038;2022-12-18T08:54:25;47.65;;;16.77;;
52354;SDS011;38286;51.156;17.038;2022-12-18T08:56:51;47.22;;;17.17;;
52354;SDS011;38286;51.156;17.038;2022-12-18T08:59:17;42.22;;;13.55;;
52354;SDS011;38286;51.156;17.038;2022-12-18T09:01:43;38.42;;;13.07;;
52354;SDS011;38286;51.156;17.038;2022-12-18T09:04:09;40.95;;;15.43;;
52354;SDS011;38286;51.156;17.038;2022-12-18T09:06:35;47.63;;;16.92;;
52354;SDS011;38286;51.156;17.038;2022-12-18T09:09:02;43.78;;;14.02;;
52354;SDS011;38286;51.156;17.038;2022-12-18T09:11:28;54.85;;;17.33;;
52354;SDS011;38286;51.156;17.038;2022-12-18T09:13:54;53.55;;;18.40;;
52354;SDS011;38286;51.156;17.038;2022-12-18T09:16:21;53.72;;;14.32;;
52354;SDS011;38286;51.156;17.038;2022-12-18T09:18:47;42.92;;;14.15;;
52354;SDS011;38286;51.156;17.038;2022-12-18T09:24:05;33.42;;;10.82;;
52354;SDS011;38286;51.156;17.038;2022-12-18T09:26:31;56.50;;;17.95;;
52354;SDS011;38286;51.156;17.038;2022-12-18T09:28:56;42.83;;;14.70;;
52354;SDS011;38286;51.156;17.038;2022-12-18T09:31:23;38.80;;;13.82;;
52354;SDS011;38286;51.156;17.038;2022-12-18T09:33:49;46.00;;;14.15;;
52354;SDS011;38286;51.156;17.038;2022-12-18T09:36:16;37.67;;;12.98;;
52354;SDS011;38286;51.156;17.038;2022-12-18T09:38:43;43.85;;;14.95;;
52354;SDS011;38286;51.156;17.038;2022-12-18T09:44:09;28.67;;;8.88;;
52354;SDS011;38286;51.156;17.038;2022-12-18T09:46:40;41.03;;;12.80;;
52354;SDS011;38286;51.156;17.038;2022-12-18T09:49:11;48.38;;;15.57;;
52354;SDS011;38286;51.156;17.038;2022-12-18T09:51:42;53.65;;;19.13;;
52354;SDS011;38286;51.156;17.038;2022-12-18T09:57:12;32.60;;;11.88;;
52354;SDS011;38286;51.156;17.038;2022-12-18T09:59:39;36.13;;;10.90;;
52354;SDS011;38286;51.156;17.038;2022-12-18T10:02:18;44.80;;;16.80;;
52354;SDS011;38286;51.156;17.038;2022-12-18T10:04:52;49.92;;;15.52;;
52354;SDS011;38286;51.156;17.038;2022-12-18T10:07:29;28.85;;;11.68;;
52354;SDS011;38286;51.156;17.038;2022-12-18T10:10:21;34.67;;;13.50;;
52354;SDS011;38286;51.156;17.038;2022-12-18T10:18:47;31.58;;;9.95;;
52354;SDS011;38286;51.156;17.038;2022-12-18T10:21:17;36.53;;;11.05;;
52354;SDS011;38286;51.156;17.038;2022-12-18T10:26:18;55.33;;;16.08;;
52354;SDS011;38286;51.156;17.038;2022-12-18T10:28:43;48.03;;;15.57;;
52354;SDS011;38286;51.156;17.038;2022-12-18T10:31:17;61.45;;;19.30;;
52354;SDS011;38286;51.156;17.038;2022-12-18T10:33:45;51.95;;;17.20;;
52354;SDS011;38286;51.156;17.038;2022-12-18T10:36:11;46.90;;;14.90;;
52354;SDS011;38286;51.156;17.038;2022-12-18T10:38:37;43.63;;;14.63;;
52354;SDS011;38286;51.156;17.038;2022-12-18T10:43:31;38.13;;;14.63;;
52354;SDS011;38286;51.156;17.038;2022-12-18T10:56:31;36.55;;;12.25;;
52354;SDS011;38286;51.156;17.038;2022-12-18T10:59:09;43.72;;;15.32;;
52354;SDS011;38286;51.156;17.038;2022-12-18T11:01:46;52.80;;;16.05;;
52354;SDS011;38286;51.156;17.038;2022-12-18T11:04:15;56.72;;;14.43;;
52354;SDS011;38286;51.156;17.038;2022-12-18T11:07:07;38.80;;;12.80;;
52354;SDS011;38286;51.156;17.038;2022-12-18T11:09:33;33.60;;;14.30;;
52354;SDS011;38286;51.156;17.038;2022-12-18T11:12:00;58.05;;;18.45;;
52354;SDS011;38286;51.156;17.038;2022-12-18T11:14:34;56.50;;;16.25;;
52354;SDS011;38286;51.156;17.038;2022-12-18T11:17:16;60.15;;;18.98;;
52354;SDS011;38286;51.156;17.038;2022-12-18T11:19:54;59.05;;;19.77;;
52354;SDS011;38286;51.156;17.038;2022-12-18T11:22:25;65.50;;;19.92;;
52354;SDS011;38286;51.156;17.038;2022-12-18T11:25:38;54.05;;;16.70;;
52354;SDS011;38286;51.156;17.038;2022-12-18T11:27:39;55.75;;;17.33;;
52354;SDS011;38286;51.156;17.038;2022-12-18T11:30:13;45.10;;;15.45;;
52354;SDS011;38286;51.156;17.038;2022-12-18T11:32:47;37.28;;;13.80;;
52354;SDS011;38286;51.156;17.038;2022-12-18T11:38:02;62.75;;;19.20;;
52354;SDS011;38286;51.156;17.038;2022-12-18T11:40:36;53.75;;;15.27;;
52354;SDS011;38286;51.156;17.038;2022-12-18T11:45:33;48.45;;;15.70;;
52354;SDS011;38286;51.156;17.038;2022-12-18T11:48:04;50.40;;;15.15;;
52354;SDS011;38286;51.156;17.038;2022-12-18T11:50:44;52.92;;;15.15;;
52354;SDS011;38286;51.156;17.038;2022-12-18T11:53:14;51.70;;;16.48;;
52354;SDS011;38286;51.156;17.038;2022-12-18T12:03:56;51.70;;;15.32;;
52354;SDS011;38286;51.156;17.038;2022-12-18T12:14:33;49.55;;;15.27;;
52354;SDS011;38286;51.156;17.038;2022-12-18T12:25:30;40.47;;;13.80;;
52354;SDS011;38286;51.156;17.038;2022-12-18T12:30:58;62.72;;;18.98;;
52354;SDS011;38286;51.156;17.038;2022-12-18T12:38:42;62.28;;;16.55;;
52354;SDS011;38286;51.156;17.038;2022-12-18T12:41:12;35.38;;;12.35;;
52354;SDS011;38286;51.156;17.038;2022-12-18T12:43:58;37.03;;;12.07;;
52354;SDS011;38286;51.156;17.038;2022-12-18T12:46:27;51.08;;;14.35;;
52354;SDS011;38286;51.156;17.038;2022-12-18T12:48:54;33.38;;;10.80;;
52354;SDS011;38286;51.156;17.038;2022-12-18T12:51:21;60.78;;;17.33;;
52354;SDS011;38286;51.156;17.038;2022-12-18T12:53:50;50.83;;;16.05;;
52354;SDS011;38286;51.156;17.038;2022-12-18T12:56:16;47.35;;;15.18;;
52354;SDS011;38286;51.156;17.038;2022-12-18T13:01:41;45.80;;;15.63;;
52354;SDS011;38286;51.156;17.038;2022-12-18T13:06:59;69.78;;;20.77;;
52354;SDS011;38286;51.156;17.038;2022-12-18T13:09:31;52.20;;;17.65;;
52354;SDS011;38286;51.156;17.038;2022-12-18T13:12:01;66.05;;;20.60;;
52354;SDS011;38286;51.156;17.038;2022-12-18T13:14:47;49.55;;;16.63;;
52354;SDS011;38286;51.156;17.038;2022-12-18T13:19:52;55.10;;;16.42;;
52354;SDS011;38286;51.156;17.038;2022-12-18T13:22:30;38.00;;;12.90;;
52354;SDS011;38286;51.156;17.038;2022-12-18T13:24:58;52.05;;;16.15;;
52354;SDS011;38286;51.156;17.038;2022-12-18T13:35:50;72.50;;;21.73;;
52354;SDS011;38286;51.156;17.038;2022-12-18T13:38:20;61.72;;;17.02;;
52354;SDS011;38286;51.156;17.038;2022-12-18T13:45:46;50.47;;;14.13;;
52354;SDS011;38286;51.156;17.038;2022-12-18T13:48:21;42.70;;;14.32;;
52354;SDS011;38286;51.156;17.038;2022-12-18T13:50:52;47.72;;;15.20;;
52354;SDS011;38286;51.156;17.038;2022-12-18T13:53:21;52.40;;;16.10;;
52354;SDS011;38286;51.156;17.038;2022-12-18T13:55:50;57.03;;;16.40;;
52354;SDS011;38286;51.156;17.038;2022-12-18T13:58:16;67.90;;;18.35;;
52354;SDS011;38286;51.156;17.038;2022-12-18T14:00:42;19.60;;;9.25;;
52354;SDS011;38286;51.156;17.038;2022-12-18T14:03:19;47.15;;;15.32;;
52354;SDS011;38286;51.156;17.038;2022-12-18T14:05:59;45.63;;;16.27;;
52354;SDS011;38286;51.156;17.038;2022-12-18T14:08:34;51.85;;;16.10;;
52354;SDS011;38286;51.156;17.038;2022-12-18T14:11:03;42.15;;;14.40;;
52354;SDS011;38286;51.156;17.038;2022-12-18T14:13:37;48.92;;;15.55;;
52354;SDS011;38286;51.156;17.038;2022-12-18T14:16:05;48.50;;;14.95;;
52354;SDS011;38286;51.156;17.038;2022-12-18T14:18:38;59.95;;;18.75;;
52354;SDS011;38286;51.156;17.038;2022-12-18T14:21:29;47.28;;;13.23;;
52354;SDS011;38286;51.156;17.038;2022-12-18T14:24:03;64.00;;;19.02;;
52354;SDS011;38286;51.156;17.038;2022-12-18T14:26:30;60.20;;;18.63;;
52354;SDS011;38286;51.156;17.038;2022-12-18T14:28:59;44.35;;;13.35;;
52354;SDS011;38286;51.156;17.038;2022-12-18T14:31:30;62.88;;;21.38;;
52354;SDS011;38286;51.156;17.038;2022-12-18T14:33:56;55.58;;;18.83;;
52354;SDS011;38286;51.156;17.038;2022-12-18T14:36:27;50.33;;;16.48;;
52354;SDS011;38286;51.156;17.038;2022-12-18T14:38:54;48.55;;;16.25;;
52354;SDS011;38286;51.156;17.038;2022-12-18T14:41:22;44.45;;;14.80;;
52354;SDS011;38286;51.156;17.038;2022-12-18T14:43:49;65.00;;;18.17;;
52354;SDS011;38286;51.156;17.038;2022-12-18T14:46:27;46.90;;;14.82;;
52354;SDS011;38286;51.156;17.038;2022-12-18T14:48:54;61.20;;;16.40;;
52354;SDS011;38286;51.156;17.038;2022-12-18T14:51:22;71.97;;;20.50;;
52354;SDS011;38286;51.156;17.038;2022-12-18T14:53:55;72.30;;;21.67;;
52354;SDS011;38286;51.156;17.038;2022-12-18T14:58:49;73.65;;;21.05;;
52354;SDS011;38286;51.156;17.038;2022-12-18T15:03:51;62.25;;;20.20;;
52354;SDS011;38286;51.156;17.038;2022-12-18T15:06:26;68.93;;;20.30;;
52354;SDS011;38286;51.156;17.038;2022-12-18T15:08:57;54.90;;;13.48;;
52354;SDS011;38286;51.156;17.038;2022-12-18T15:11:28;100.88;;;27.00;;
52354;SDS011;38286;51.156;17.038;2022-12-18T15:13:58;83.73;;;23.40;;
52354;SDS011;38286;51.156;17.038;2022-12-18T15:16:26;42.05;;;12.95;;
52354;SDS011;38286;51.156;17.038;2022-12-18T15:18:51;67.20;;;20.00;;
52354;SDS011;38286;51.156;17.038;2022-12-18T15:21:19;68.20;;;18.98;;
52354;SDS011;38286;51.156;17.038;2022-12-18T15:23:51;82.22;;;22.70;;
52354;SDS011;38286;51.156;17.038;2022-12-18T15:26:21;88.22;;;23.63;;
52354;SDS011;38286;51.156;17.038;2022-12-18T15:31:32;71.32;;;20.65;;
52354;SDS011;38286;51.156;17.038;2022-12-18T15:34:01;51.35;;;17.70;;
52354;SDS011;38286;51.156;17.038;2022-12-18T15:39:01;66.45;;;22.17;;
52354;SDS011;38286;51.156;17.038;2022-12-18T15:41:30;49.45;;;15.95;;
52354;SDS011;38286;51.156;17.038;2022-12-18T15:44:00;49.20;;;14.40;;
52354;SDS011;38286;51.156;17.038;2022-12-18T15:46:25;78.10;;;23.55;;
52354;SDS011;38286;51.156;17.038;2022-12-18T15:48:53;70.18;;;23.13;;
52354;SDS011;38286;51.156;17.038;2022-12-18T15:51:20;50.92;;;16.38;;
52354;SDS011;38286;51.156;17.038;2022-12-18T15:53:48;76.22;;;20.02;;
52354;SDS011;38286;51.156;17.038;2022-12-18T15:56:16;78.55;;;20.80;;
52354;SDS011;38286;51.156;17.038;2022-12-18T15:59:00;62.17;;;18.08;;
52354;SDS011;38286;51.156;17.038;2022-12-18T16:01:27;87.03;;;23.80;;
52354;SDS011;38286;51.156;17.038;2022-12-18T16:03:54;91.43;;;24.63;;
52354;SDS011;38286;51.156;17.038;2022-12-18T16:06:20;76.95;;;23.48;;
52354;SDS011;38286;51.156;17.038;2022-12-18T16:08:47;58.15;;;19.38;;
52354;SDS011;38286;51.156;17.038;2022-12-18T16:14:25;84.95;;;21.58;;
52354;SDS011;38286;51.156;17.038;2022-12-18T16:16:55;58.88;;;17.05;;
52354;SDS011;38286;51.156;17.038;2022-12-18T16:19:22;71.22;;;20.90;;
52354;SDS011;38286;51.156;17.038;2022-12-18T16:21:48;61.72;;;19.58;;
52354;SDS011;38286;51.156;17.038;2022-12-18T16:24:20;78.07;;;23.63;;
52354;SDS011;38286;51.156;17.038;2022-12-18T16:26:50;61.15;;;21.05;;
52354;SDS011;38286;51.156;17.038;2022-12-18T16:29:17;80.38;;;23.08;;
52354;SDS011;38286;51.156;17.038;2022-12-18T16:31:43;83.25;;;24.65;;